sensor_id;sensor_type;location;lat;lon;timestamp;temperature;humidity
9919;DHT22;4998;51.024;13.828;2024-03-02T00:00:49;14.30;91.70
9919;DHT22;4998;51.024;13.828;2024-03-02T00:03:17;14.30;91.80
9919;DHT22;4998;51.024;13.828;2024-03-02T00:05:49;14.30;91.80
9919;DHT22;4998;51.024;13.828;2024-03-02T00:08:24;14.30;91.90
9919;DHT22;4998;51.024;13.828;2024-03-02T00:10:53;14.40;92.00
9919;DHT22;4998;51.024;13.828;2024-03-02T00:13:23;14.40;91.80
9919;DHT22;4998;51.024;13.828;2024-03-02T00:15:53;14.30;91.80
9919;DHT22;4998;51.024;13.828;2024-03-02T00:18:25;14.40;91.90
9919;DHT22;4998;51.024;13.828;2024-03-02T00:20:53;14.40;91.90
9919;DHT22;4998;51.024;13.828;2024-03-02T00:23:21;14.40;92.00
9919;DHT22;4998;51.024;13.828;2024-03-02T00:25:51;14.30;91.90
9919;DHT22;4998;51.024;13.828;2024-03-02T00:28:20;14.40;92.00
9919;DHT22;4998;51.024;13.828;2024-03-02T00:30:55;14.40;92.00
9919;DHT22;4998;51.024;13.828;2024-03-02T00:33:26;14.40;92.10
9919;DHT22;4998;51.024;13.828;2024-03-02T00:35:53;14.40;92.10
9919;DHT22;4998;51.024;13.828;2024-03-02T00:38:21;14.40;92.10
9919;DHT22;4998;51.024;13.828;2024-03-02T00:40:49;14.40;92.10
9919;DHT22;4998;51.024;13.828;2024-03-02T00:43:42;14.40;92.20
9919;DHT22;4998;51.024;13.828;2024-03-02T00:46:11;14.40;92.30
9919;DHT22;4998;51.024;13.828;2024-03-02T00:48:43;14.40;92.20
9919;DHT22;4998;51.024;13.828;2024-03-02T00:51:14;14.40;92.20
9919;DHT22;4998;51.024;13.828;2024-03-02T00:53:41;14.40;92.20
9919;DHT22;4998;51.024;13.828;2024-03-02T00:56:11;14.40;92.20
9919;DHT22;4998;51.024;13.828;2024-03-02T00:58:38;14.40;92.30
9919;DHT22;4998;51.024;13.828;2024-03-02T01:01:05;14.40;92.20
9919;DHT22;4998;51.024;13.828;2024-03-02T01:03:33;14.40;92.30
9919;DHT22;4998;51.024;13.828;2024-03-02T01:06:00;14.40;92.30
9919;DHT22;4998;51.024;13.828;2024-03-02T01:08:27;14.40;92.20
9919;DHT22;4998;51.024;13.828;2024-03-02T01:10:54;14.40;92.20
9919;DHT22;4998;51.024;13.828;2024-03-02T01:13:23;14.40;92.30
9919;DHT22;4998;51.024;13.828;2024-03-02T01:15:50;14.40;92.40
9919;DHT22;4998;51.024;13.828;2024-03-02T01:18:18;14.30;92.30
9919;DHT22;4998;51.024;13.828;2024-03-02T01:20:45;14.30;92.40
9919;DHT22;4998;51.024;13.828;2024-03-02T01:23:12;14.30;92.40
9919;DHT22;4998;51.024;13.828;2024-03-02T01:25:40;14.30;92.50
9919;DHT22;4998;51.024;13.828;2024-03-02T01:28:07;14.30;92.50
9919;DHT22;4998;51.024;13.828;2024-03-02T01:30:35;14.30;92.50
9919;DHT22;4998;51.024;13.828;2024-03-02T01:33:03;14.30;92.60
9919;DHT22;4998;51.024;13.828;2024-03-02T01:35:31;14.30;92.60
9919;DHT22;4998;51.024;13.828;2024-03-02T01:37:58;14.30;92.60
9919;DHT22;4998;51.024;13.828;2024-03-02T01:40:25;14.30;92.60
9919;DHT22;4998;51.024;13.828;2024-03-02T01:42:53;14.30;92.60
9919;DHT22;4998;51.024;13.828;2024-03-02T01:45:21;14.30;92.70
9919;DHT22;4998;51.024;13.828;2024-03-02T01:47:50;14.30;92.70
9919;DHT22;4998;51.024;13.828;2024-03-02T01:50:25;14.30;92.70
9919;DHT22;4998;51.024;13.828;2024-03-02T01:52:52;14.30;92.80
9919;DHT22;4998;51.024;13.828;2024-03-02T01:55:20;14.40;92.70
9919;DHT22;4998;51.024;13.828;2024-03-02T01:57:47;14.40;92.70
9919;DHT22;4998;51.024;13.828;2024-03-02T02:00:16;14.30;92.70
9919;DHT22;4998;51.024;13.828;2024-03-02T02:02:44;14.30;92.70
9919;DHT22;4998;51.024;13.828;2024-03-02T02:05:12;14.40;92.80
9919;DHT22;4998;51.024;13.828;2024-03-02T02:07:40;14.40;92.80
9919;DHT22;4998;51.024;13.828;2024-03-02T02:10:09;14.40;92.80
9919;DHT22;4998;51.024;13.828;2024-03-02T02:12:36;14.40;92.70
9919;DHT22;4998;51.024;13.828;2024-03-02T02:15:22;14.40;92.70
9919;DHT22;4998;51.024;13.828;2024-03-02T02:17:49;14.40;92.80
9919;DHT22;4998;51.024;13.828;2024-03-02T02:20:17;14.30;92.60
9919;DHT22;4998;51.024;13.828;2024-03-02T02:23:00;14.40;92.70
9919;DHT22;4998;51.024;13.828;2024-03-02T02:25:28;14.40;92.80
9919;DHT22;4998;51.024;13.828;2024-03-02T02:27:56;14.40;92.70
9919;DHT22;4998;51.024;13.828;2024-03-02T02:30:25;14.30;92.70
9919;DHT22;4998;51.024;13.828;2024-03-02T02:32:52;14.40;92.70
9919;DHT22;4998;51.024;13.828;2024-03-02T02:35:19;14.30;92.70
9919;DHT22;4998;51.024;13.828;2024-03-02T02:37:47;14.30;92.70
9919;DHT22;4998;51.024;13.828;2024-03-02T02:40:16;14.40;92.80
9919;DHT22;4998;51.024;13.828;2024-03-02T02:42:44;14.40;92.80
9919;DHT22;4998;51.024;13.828;2024-03-02T02:45:11;14.40;92.80
9919;DHT22;4998;51.024;13.828;2024-03-02T02:47:40;14.40;92.80
9919;DHT22;4998;51.024;13.828;2024-03-02T02:50:08;14.30;92.70
9919;DHT22;4998;51.024;13.828;2024-03-02T02:52:36;14.40;92.80
9919;DHT22;4998;51.024;13.828;2024-03-02T02:55:06;14.40;92.80
9919;DHT22;4998;51.024;13.828;2024-03-02T02:57:35;14.40;92.80
9919;DHT22;4998;51.024;13.828;2024-03-02T03:00:06;14.30;92.70
9919;DHT22;4998;51.024;13.828;2024-03-02T03:02:37;14.40;92.80
9919;DHT22;4998;51.024;13.828;2024-03-02T03:05:05;14.40;92.80
9919;DHT22;4998;51.024;13.828;2024-03-02T03:07:33;14.40;92.80
9919;DHT22;4998;51.024;13.828;2024-03-02T03:10:00;14.40;92.80
9919;DHT22;4998;51.024;13.828;2024-03-02T03:12:29;14.40;92.80
9919;DHT22;4998;51.024;13.828;2024-03-02T03:14:58;14.40;92.80
9919;DHT22;4998;51.024;13.828;2024-03-02T03:17:25;14.30;92.80
9919;DHT22;4998;51.024;13.828;2024-03-02T03:19:52;14.30;92.80
9919;DHT22;4998;51.024;13.828;2024-03-02T03:22:20;14.30;92.80
9919;DHT22;4998;51.024;13.828;2024-03-02T03:24:47;14.30;92.80
9919;DHT22;4998;51.024;13.828;2024-03-02T03:27:14;14.30;92.80
9919;DHT22;4998;51.024;13.828;2024-03-02T03:29:41;14.30;92.80
9919;DHT22;4998;51.024;13.828;2024-03-02T03:32:10;14.30;92.80
9919;DHT22;4998;51.024;13.828;2024-03-02T03:34:38;14.20;92.80
9919;DHT22;4998;51.024;13.828;2024-03-02T03:37:05;14.30;92.80
9919;DHT22;4998;51.024;13.828;2024-03-02T03:39:34;14.30;92.90
9919;DHT22;4998;51.024;13.828;2024-03-02T03:42:01;14.30;92.90
9919;DHT22;4998;51.024;13.828;2024-03-02T03:44:28;14.20;92.80
9919;DHT22;4998;51.024;13.828;2024-03-02T03:46:55;14.20;92.90
9919;DHT22;4998;51.024;13.828;2024-03-02T03:49:23;14.20;92.90
9919;DHT22;4998;51.024;13.828;2024-03-02T03:51:50;14.20;93.00
9919;DHT22;4998;51.024;13.828;2024-03-02T03:54:17;14.20;93.00
9919;DHT22;4998;51.024;13.828;2024-03-02T03:56:45;14.20;93.00
9919;DHT22;4998;51.024;13.828;2024-03-02T03:59:12;14.20;93.00
9919;DHT22;4998;51.024;13.828;2024-03-02T04:01:39;14.20;93.00
9919;DHT22;4998;51.024;13.828;2024-03-02T04:04:06;14.20;93.10
9919;DHT22;4998;51.024;13.828;2024-03-02T04:06:35;14.10;93.10
9919;DHT22;4998;51.024;13.828;2024-03-02T04:09:02;14.10;93.10
9919;DHT22;4998;51.024;13.828;2024-03-02T04:11:32;14.10;93.10
9919;DHT22;4998;51.024;13.828;2024-03-02T04:13:59;14.10;93.10
9919;DHT22;4998;51.024;13.828;2024-03-02T04:16:26;14.10;93.10
9919;DHT22;4998;51.024;13.828;2024-03-02T04:18:54;14.10;93.20
9919;DHT22;4998;51.024;13.828;2024-03-02T04:21:20;14.10;93.20
9919;DHT22;4998;51.024;13.828;2024-03-02T04:23:48;14.10;93.20
9919;DHT22;4998;51.024;13.828;2024-03-02T04:26:16;14.10;93.20
9919;DHT22;4998;51.024;13.828;2024-03-02T04:28:47;14.00;93.20
9919;DHT22;4998;51.024;13.828;2024-03-02T04:31:15;14.10;93.20
9919;DHT22;4998;51.024;13.828;2024-03-02T04:33:42;14.10;93.20
9919;DHT22;4998;51.024;13.828;2024-03-02T04:36:09;14.00;93.20
9919;DHT22;4998;51.024;13.828;2024-03-02T04:38:36;14.00;93.30
9919;DHT22;4998;51.024;13.828;2024-03-02T04:41:05;14.00;93.30
9919;DHT22;4998;51.024;13.828;2024-03-02T04:43:33;14.00;93.40
9919;DHT22;4998;51.024;13.828;2024-03-02T04:46:00;14.00;93.40
9919;DHT22;4998;51.024;13.828;2024-03-02T04:48:27;14.00;93.40
9919;DHT22;4998;51.024;13.828;2024-03-02T04:50:54;14.00;93.40
9919;DHT22;4998;51.024;13.828;2024-03-02T04:53:21;14.00;93.40
9919;DHT22;4998;51.024;13.828;2024-03-02T04:55:48;13.90;93.40
9919;DHT22;4998;51.024;13.828;2024-03-02T04:58:47;13.90;93.50
9919;DHT22;4998;51.024;13.828;2024-03-02T05:01:14;13.90;93.80
9919;DHT22;4998;51.024;13.828;2024-03-02T05:03:43;13.90;93.40
9919;DHT22;4998;51.024;13.828;2024-03-02T05:06:10;13.90;93.50
9919;DHT22;4998;51.024;13.828;2024-03-02T05:08:37;13.90;93.50
9919;DHT22;4998;51.024;13.828;2024-03-02T05:11:04;13.90;93.50
9919;DHT22;4998;51.024;13.828;2024-03-02T05:13:47;13.90;93.50
9919;DHT22;4998;51.024;13.828;2024-03-02T05:16:14;13.90;93.60
9919;DHT22;4998;51.024;13.828;2024-03-02T05:18:41;13.90;93.50
9919;DHT22;4998;51.024;13.828;2024-03-02T05:21:08;13.90;93.50
9919;DHT22;4998;51.024;13.828;2024-03-02T05:23:35;13.90;93.60
9919;DHT22;4998;51.024;13.828;2024-03-02T05:26:03;14.00;93.60
9919;DHT22;4998;51.024;13.828;2024-03-02T05:28:30;14.00;94.00
9919;DHT22;4998;51.024;13.828;2024-03-02T05:30:58;14.00;93.60
9919;DHT22;4998;51.024;13.828;2024-03-02T05:33:25;14.00;93.60
9919;DHT22;4998;51.024;13.828;2024-03-02T05:35:52;14.00;93.50
9919;DHT22;4998;51.024;13.828;2024-03-02T05:38:19;14.00;93.50
9919;DHT22;4998;51.024;13.828;2024-03-02T05:40:47;14.00;93.50
9919;DHT22;4998;51.024;13.828;2024-03-02T05:43:14;14.00;93.40
9919;DHT22;4998;51.024;13.828;2024-03-02T05:45:41;14.00;93.40
9919;DHT22;4998;51.024;13.828;2024-03-02T05:48:10;14.10;93.50
9919;DHT22;4998;51.024;13.828;2024-03-02T05:50:37;14.10;93.50
9919;DHT22;4998;51.024;13.828;2024-03-02T05:53:04;14.00;93.50
9919;DHT22;4998;51.024;13.828;2024-03-02T05:55:31;14.10;93.50
9919;DHT22;4998;51.024;13.828;2024-03-02T05:57:58;14.10;93.50
9919;DHT22;4998;51.024;13.828;2024-03-02T06:00:41;14.10;93.50
9919;DHT22;4998;51.024;13.828;2024-03-02T06:03:09;14.10;93.50
9919;DHT22;4998;51.024;13.828;2024-03-02T06:05:36;14.10;93.40
9919;DHT22;4998;51.024;13.828;2024-03-02T06:08:04;14.10;93.40
9919;DHT22;4998;51.024;13.828;2024-03-02T06:10:31;14.10;93.40
9919;DHT22;4998;51.024;13.828;2024-03-02T06:12:58;14.10;93.30
9919;DHT22;4998;51.024;13.828;2024-03-02T06:15:25;14.10;93.30
9919;DHT22;4998;51.024;13.828;2024-03-02T06:17:52;14.10;93.40
9919;DHT22;4998;51.024;13.828;2024-03-02T06:20:21;14.10;93.30
9919;DHT22;4998;51.024;13.828;2024-03-02T06:22:48;14.10;93.30
9919;DHT22;4998;51.024;13.828;2024-03-02T06:25:15;14.10;93.30
9919;DHT22;4998;51.024;13.828;2024-03-02T06:27:42;14.10;93.30
9919;DHT22;4998;51.024;13.828;2024-03-02T06:30:10;14.10;93.30
9919;DHT22;4998;51.024;13.828;2024-03-02T06:32:37;14.10;93.30
9919;DHT22;4998;51.024;13.828;2024-03-02T06:35:05;14.10;93.20
9919;DHT22;4998;51.024;13.828;2024-03-02T06:37:37;14.10;93.20
9919;DHT22;4998;51.024;13.828;2024-03-02T06:40:06;14.10;93.10
9919;DHT22;4998;51.024;13.828;2024-03-02T06:42:33;14.10;93.00
9919;DHT22;4998;51.024;13.828;2024-03-02T06:45:01;14.10;93.00
9919;DHT22;4998;51.024;13.828;2024-03-02T06:47:28;14.10;93.00
9919;DHT22;4998;51.024;13.828;2024-03-02T06:49:55;14.10;93.00
9919;DHT22;4998;51.024;13.828;2024-03-02T06:52:24;14.10;93.00
9919;DHT22;4998;51.024;13.828;2024-03-02T06:54:52;14.10;93.00
9919;DHT22;4998;51.024;13.828;2024-03-02T06:57:19;14.10;93.00
9919;DHT22;4998;51.024;13.828;2024-03-02T06:59:46;14.20;93.00
9919;DHT22;4998;51.024;13.828;2024-03-02T07:02:15;14.20;93.00
9919;DHT22;4998;51.024;13.828;2024-03-02T07:04:43;14.20;93.00
9919;DHT22;4998;51.024;13.828;2024-03-02T07:07:11;14.20;93.00
9919;DHT22;4998;51.024;13.828;2024-03-02T07:09:38;14.20;93.00
9919;DHT22;4998;51.024;13.828;2024-03-02T07:12:07;14.20;93.00
9919;DHT22;4998;51.024;13.828;2024-03-02T07:14:34;14.20;93.00
9919;DHT22;4998;51.024;13.828;2024-03-02T07:17:19;14.20;93.00
9919;DHT22;4998;51.024;13.828;2024-03-02T07:19:46;14.20;92.90
9919;DHT22;4998;51.024;13.828;2024-03-02T07:22:13;14.20;92.90
9919;DHT22;4998;51.024;13.828;2024-03-02T07:24:40;14.30;92.90
9919;DHT22;4998;51.024;13.828;2024-03-02T07:27:10;14.30;92.90
9919;DHT22;4998;51.024;13.828;2024-03-02T07:29:38;14.30;92.90
9919;DHT22;4998;51.024;13.828;2024-03-02T07:32:06;14.20;92.80
9919;DHT22;4998;51.024;13.828;2024-03-02T07:34:34;14.30;92.80
9919;DHT22;4998;51.024;13.828;2024-03-02T07:37:01;14.30;92.80
9919;DHT22;4998;51.024;13.828;2024-03-02T07:39:27;14.20;92.80
9919;DHT22;4998;51.024;13.828;2024-03-02T07:41:55;14.30;92.80
9919;DHT22;4998;51.024;13.828;2024-03-02T07:44:24;14.30;92.80
9919;DHT22;4998;51.024;13.828;2024-03-02T07:46:51;14.30;92.80
9919;DHT22;4998;51.024;13.828;2024-03-02T07:49:19;14.30;92.80
9919;DHT22;4998;51.024;13.828;2024-03-02T07:51:46;14.30;92.80
9919;DHT22;4998;51.024;13.828;2024-03-02T07:54:13;14.30;92.70
9919;DHT22;4998;51.024;13.828;2024-03-02T07:56:40;14.30;92.70
9919;DHT22;4998;51.024;13.828;2024-03-02T07:59:07;14.30;92.70
9919;DHT22;4998;51.024;13.828;2024-03-02T08:01:35;14.30;92.70
9919;DHT22;4998;51.024;13.828;2024-03-02T08:04:03;14.30;92.60
9919;DHT22;4998;51.024;13.828;2024-03-02T08:06:30;14.30;92.50
9919;DHT22;4998;51.024;13.828;2024-03-02T08:08:58;14.30;92.40
9919;DHT22;4998;51.024;13.828;2024-03-02T08:11:26;14.30;92.40
9919;DHT22;4998;51.024;13.828;2024-03-02T08:13:54;14.30;92.30
9919;DHT22;4998;51.024;13.828;2024-03-02T08:16:22;14.30;92.30
9919;DHT22;4998;51.024;13.828;2024-03-02T08:18:53;14.30;92.20
9919;DHT22;4998;51.024;13.828;2024-03-02T08:21:20;14.30;92.20
9919;DHT22;4998;51.024;13.828;2024-03-02T08:23:47;14.30;92.20
9919;DHT22;4998;51.024;13.828;2024-03-02T08:26:14;14.30;92.30
9919;DHT22;4998;51.024;13.828;2024-03-02T08:28:41;14.30;92.30
9919;DHT22;4998;51.024;13.828;2024-03-02T08:31:09;14.30;92.30
9919;DHT22;4998;51.024;13.828;2024-03-02T08:33:36;14.30;92.20
9919;DHT22;4998;51.024;13.828;2024-03-02T08:36:05;14.30;92.20
9919;DHT22;4998;51.024;13.828;2024-03-02T08:38:33;14.30;92.20
9919;DHT22;4998;51.024;13.828;2024-03-02T08:41:00;14.30;92.10
9919;DHT22;4998;51.024;13.828;2024-03-02T08:43:27;14.30;92.20
9919;DHT22;4998;51.024;13.828;2024-03-02T08:45:55;14.30;92.20
9919;DHT22;4998;51.024;13.828;2024-03-02T08:48:22;14.40;92.10
9919;DHT22;4998;51.024;13.828;2024-03-02T08:50:49;14.40;92.10
9919;DHT22;4998;51.024;13.828;2024-03-02T08:53:17;14.40;92.10
9919;DHT22;4998;51.024;13.828;2024-03-02T08:55:45;14.40;92.10
9919;DHT22;4998;51.024;13.828;2024-03-02T08:58:12;14.40;92.20
9919;DHT22;4998;51.024;13.828;2024-03-02T09:00:39;14.40;92.20
9919;DHT22;4998;51.024;13.828;2024-03-02T09:03:07;14.40;92.20
9919;DHT22;4998;51.024;13.828;2024-03-02T09:05:34;14.50;92.30
9919;DHT22;4998;51.024;13.828;2024-03-02T09:08:01;14.50;92.30
9919;DHT22;4998;51.024;13.828;2024-03-02T09:10:31;14.60;92.30
9919;DHT22;4998;51.024;13.828;2024-03-02T09:12:58;14.60;92.40
9919;DHT22;4998;51.024;13.828;2024-03-02T09:15:25;14.70;92.40
9919;DHT22;4998;51.024;13.828;2024-03-02T09:17:52;14.80;92.20
9919;DHT22;4998;51.024;13.828;2024-03-02T09:20:19;14.80;92.10
9919;DHT22;4998;51.024;13.828;2024-03-02T09:22:46;14.80;91.90
9919;DHT22;4998;51.024;13.828;2024-03-02T09:25:14;14.90;91.90
9919;DHT22;4998;51.024;13.828;2024-03-02T09:27:43;14.90;91.80
9919;DHT22;4998;51.024;13.828;2024-03-02T09:30:11;14.90;91.70
9919;DHT22;4998;51.024;13.828;2024-03-02T09:32:39;15.00;91.70
9919;DHT22;4998;51.024;13.828;2024-03-02T09:35:07;15.00;91.70
9919;DHT22;4998;51.024;13.828;2024-03-02T09:37:35;15.00;91.60
9919;DHT22;4998;51.024;13.828;2024-03-02T09:40:02;15.00;91.60
9919;DHT22;4998;51.024;13.828;2024-03-02T09:42:30;15.10;91.60
9919;DHT22;4998;51.024;13.828;2024-03-02T09:44:59;15.10;91.40
9919;DHT22;4998;51.024;13.828;2024-03-02T09:47:27;15.10;91.30
9919;DHT22;4998;51.024;13.828;2024-03-02T09:49:54;15.10;91.30
9919;DHT22;4998;51.024;13.828;2024-03-02T09:52:22;15.10;91.30
9919;DHT22;4998;51.024;13.828;2024-03-02T09:54:49;15.10;91.20
9919;DHT22;4998;51.024;13.828;2024-03-02T09:57:17;15.20;91.20
9919;DHT22;4998;51.024;13.828;2024-03-02T09:59:44;15.20;91.10
9919;DHT22;4998;51.024;13.828;2024-03-02T10:02:13;15.20;91.00
9919;DHT22;4998;51.024;13.828;2024-03-02T10:04:40;15.20;91.00
9919;DHT22;4998;51.024;13.828;2024-03-02T10:07:14;15.20;90.90
9919;DHT22;4998;51.024;13.828;2024-03-02T10:09:41;15.20;90.80
9919;DHT22;4998;51.024;13.828;2024-03-02T10:12:10;15.20;90.80
9919;DHT22;4998;51.024;13.828;2024-03-02T10:14:38;15.20;90.80
9919;DHT22;4998;51.024;13.828;2024-03-02T10:17:06;15.30;90.80
9919;DHT22;4998;51.024;13.828;2024-03-02T10:19:36;15.30;90.70
9919;DHT22;4998;51.024;13.828;2024-03-02T10:22:05;15.30;91.10
9919;DHT22;4998;51.024;13.828;2024-03-02T10:24:37;15.30;91.10
9919;DHT22;4998;51.024;13.828;2024-03-02T10:27:09;15.40;91.10
9919;DHT22;4998;51.024;13.828;2024-03-02T10:29:37;15.50;91.00
9919;DHT22;4998;51.024;13.828;2024-03-02T10:32:05;15.50;91.00
9919;DHT22;4998;51.024;13.828;2024-03-02T10:34:37;15.60;91.00
9919;DHT22;4998;51.024;13.828;2024-03-02T10:37:05;15.70;90.80
9919;DHT22;4998;51.024;13.828;2024-03-02T10:39:34;15.80;90.70
9919;DHT22;4998;51.024;13.828;2024-03-02T10:42:03;15.90;90.50
9919;DHT22;4998;51.024;13.828;2024-03-02T10:44:31;15.90;90.40
9919;DHT22;4998;51.024;13.828;2024-03-02T10:47:00;16.00;90.30
9919;DHT22;4998;51.024;13.828;2024-03-02T10:49:30;16.00;90.30
9919;DHT22;4998;51.024;13.828;2024-03-02T10:51:59;16.10;90.30
9919;DHT22;4998;51.024;13.828;2024-03-02T10:54:27;16.10;90.00
9919;DHT22;4998;51.024;13.828;2024-03-02T10:56:58;16.20;90.00
9919;DHT22;4998;51.024;13.828;2024-03-02T10:59:28;16.30;89.80
9919;DHT22;4998;51.024;13.828;2024-03-02T11:01:57;16.30;89.30
9919;DHT22;4998;51.024;13.828;2024-03-02T11:04:25;16.40;89.30
9919;DHT22;4998;51.024;13.828;2024-03-02T11:06:56;16.40;89.20
9919;DHT22;4998;51.024;13.828;2024-03-02T11:09:28;16.50;88.80
9919;DHT22;4998;51.024;13.828;2024-03-02T11:12:03;16.60;88.40
9919;DHT22;4998;51.024;13.828;2024-03-02T11:14:32;16.60;88.00
9919;DHT22;4998;51.024;13.828;2024-03-02T11:17:02;16.70;88.10
9919;DHT22;4998;51.024;13.828;2024-03-02T11:19:31;16.70;87.30
9919;DHT22;4998;51.024;13.828;2024-03-02T11:21:59;16.70;86.90
9919;DHT22;4998;51.024;13.828;2024-03-02T11:24:31;16.80;86.70
9919;DHT22;4998;51.024;13.828;2024-03-02T11:27:03;16.80;86.00
9919;DHT22;4998;51.024;13.828;2024-03-02T11:29:45;16.90;86.10
9919;DHT22;4998;51.024;13.828;2024-03-02T11:32:17;17.00;85.90
9919;DHT22;4998;51.024;13.828;2024-03-02T11:34:46;17.00;85.40
9919;DHT22;4998;51.024;13.828;2024-03-02T11:37:14;17.10;85.20
9919;DHT22;4998;51.024;13.828;2024-03-02T11:39:43;17.10;85.10
9919;DHT22;4998;51.024;13.828;2024-03-02T11:42:11;17.20;84.60
9919;DHT22;4998;51.024;13.828;2024-03-02T11:44:42;17.30;84.70
9919;DHT22;4998;51.024;13.828;2024-03-02T11:47:12;17.30;84.10
9919;DHT22;4998;51.024;13.828;2024-03-02T11:49:42;17.40;84.00
9919;DHT22;4998;51.024;13.828;2024-03-02T11:52:12;17.40;84.00
9919;DHT22;4998;51.024;13.828;2024-03-02T11:54:40;17.40;83.70
9919;DHT22;4998;51.024;13.828;2024-03-02T11:57:14;17.50;83.20
9919;DHT22;4998;51.024;13.828;2024-03-02T11:59:41;17.50;82.70
9919;DHT22;4998;51.024;13.828;2024-03-02T12:02:15;17.60;82.20
9919;DHT22;4998;51.024;13.828;2024-03-02T12:04:43;17.60;81.30
9919;DHT22;4998;51.024;13.828;2024-03-02T12:07:11;17.60;81.50
9919;DHT22;4998;51.024;13.828;2024-03-02T12:09:38;17.60;80.90
9919;DHT22;4998;51.024;13.828;2024-03-02T12:12:06;17.50;80.50
9919;DHT22;4998;51.024;13.828;2024-03-02T12:14:37;17.50;80.30
9919;DHT22;4998;51.024;13.828;2024-03-02T12:17:05;17.50;80.00
9919;DHT22;4998;51.024;13.828;2024-03-02T12:19:32;17.50;80.00
9919;DHT22;4998;51.024;13.828;2024-03-02T12:22:00;17.40;79.70
9919;DHT22;4998;51.024;13.828;2024-03-02T12:24:30;17.40;79.30
9919;DHT22;4998;51.024;13.828;2024-03-02T12:26:57;17.40;78.80
9919;DHT22;4998;51.024;13.828;2024-03-02T12:29:24;17.40;78.60
9919;DHT22;4998;51.024;13.828;2024-03-02T12:31:53;17.40;78.80
9919;DHT22;4998;51.024;13.828;2024-03-02T12:34:21;17.30;78.30
9919;DHT22;4998;51.024;13.828;2024-03-02T12:36:48;17.30;78.20
9919;DHT22;4998;51.024;13.828;2024-03-02T12:39:19;17.30;78.10
9919;DHT22;4998;51.024;13.828;2024-03-02T12:41:46;17.20;77.90
9919;DHT22;4998;51.024;13.828;2024-03-02T12:44:16;17.20;77.50
9919;DHT22;4998;51.024;13.828;2024-03-02T12:46:43;17.20;77.60
9919;DHT22;4998;51.024;13.828;2024-03-02T12:49:13;17.20;77.30
9919;DHT22;4998;51.024;13.828;2024-03-02T12:51:43;17.10;77.00
9919;DHT22;4998;51.024;13.828;2024-03-02T12:54:12;17.20;77.40
9919;DHT22;4998;51.024;13.828;2024-03-02T12:56:41;17.10;77.60
9919;DHT22;4998;51.024;13.828;2024-03-02T12:59:18;17.20;77.60
9919;DHT22;4998;51.024;13.828;2024-03-02T13:01:56;17.20;78.10
9919;DHT22;4998;51.024;13.828;2024-03-02T13:04:26;17.20;77.10
9919;DHT22;4998;51.024;13.828;2024-03-02T13:06:55;17.20;77.10
9919;DHT22;4998;51.024;13.828;2024-03-02T13:09:23;17.30;77.00
9919;DHT22;4998;51.024;13.828;2024-03-02T13:11:50;17.30;76.70
9919;DHT22;4998;51.024;13.828;2024-03-02T13:14:17;17.30;76.30
9919;DHT22;4998;51.024;13.828;2024-03-02T13:16:45;17.30;76.30
9919;DHT22;4998;51.024;13.828;2024-03-02T13:19:13;17.30;76.40
9919;DHT22;4998;51.024;13.828;2024-03-02T13:21:41;17.30;77.20
9919;DHT22;4998;51.024;13.828;2024-03-02T13:24:08;17.40;76.30
9919;DHT22;4998;51.024;13.828;2024-03-02T13:26:36;17.40;76.20
9919;DHT22;4998;51.024;13.828;2024-03-02T13:29:03;17.40;75.90
9919;DHT22;4998;51.024;13.828;2024-03-02T13:31:30;17.50;75.90
9919;DHT22;4998;51.024;13.828;2024-03-02T13:33:57;17.50;75.70
9919;DHT22;4998;51.024;13.828;2024-03-02T13:36:24;17.50;75.30
9919;DHT22;4998;51.024;13.828;2024-03-02T13:38:53;17.50;75.00
9919;DHT22;4998;51.024;13.828;2024-03-02T13:41:20;17.50;74.40
9919;DHT22;4998;51.024;13.828;2024-03-02T13:43:47;17.60;74.40
9919;DHT22;4998;51.024;13.828;2024-03-02T13:46:14;17.60;74.00
9919;DHT22;4998;51.024;13.828;2024-03-02T13:48:41;17.60;73.60
9919;DHT22;4998;51.024;13.828;2024-03-02T13:51:08;17.50;73.10
9919;DHT22;4998;51.024;13.828;2024-03-02T13:53:35;17.50;73.00
9919;DHT22;4998;51.024;13.828;2024-03-02T13:56:04;17.40;72.90
9919;DHT22;4998;51.024;13.828;2024-03-02T13:58:32;17.40;73.00
9919;DHT22;4998;51.024;13.828;2024-03-02T14:00:59;17.40;73.10
9919;DHT22;4998;51.024;13.828;2024-03-02T14:03:27;17.40;73.00
9919;DHT22;4998;51.024;13.828;2024-03-02T14:05:54;17.30;72.70
9919;DHT22;4998;51.024;13.828;2024-03-02T14:08:22;17.30;72.70
9919;DHT22;4998;51.024;13.828;2024-03-02T14:10:49;17.20;72.60
9919;DHT22;4998;51.024;13.828;2024-03-02T14:13:17;17.30;72.70
9919;DHT22;4998;51.024;13.828;2024-03-02T14:15:45;17.30;72.50
9919;DHT22;4998;51.024;13.828;2024-03-02T14:18:12;17.20;72.50
9919;DHT22;4998;51.024;13.828;2024-03-02T14:20:39;17.20;72.50
9919;DHT22;4998;51.024;13.828;2024-03-02T14:23:07;17.20;72.30
9919;DHT22;4998;51.024;13.828;2024-03-02T14:25:35;17.20;72.10
9919;DHT22;4998;51.024;13.828;2024-03-02T14:28:03;17.20;72.10
9919;DHT22;4998;51.024;13.828;2024-03-02T14:30:31;17.10;72.00
9919;DHT22;4998;51.024;13.828;2024-03-02T14:32:59;17.10;71.80
9919;DHT22;4998;51.024;13.828;2024-03-02T14:35:26;17.10;72.10
9919;DHT22;4998;51.024;13.828;2024-03-02T14:37:54;17.10;72.10
9919;DHT22;4998;51.024;13.828;2024-03-02T14:40:23;17.10;71.90
9919;DHT22;4998;51.024;13.828;2024-03-02T14:42:52;17.10;71.80
9919;DHT22;4998;51.024;13.828;2024-03-02T14:45:19;17.00;71.70
9919;DHT22;4998;51.024;13.828;2024-03-02T14:47:48;17.00;71.70
9919;DHT22;4998;51.024;13.828;2024-03-02T14:50:16;17.00;71.40
9919;DHT22;4998;51.024;13.828;2024-03-02T14:52:44;17.00;71.30
9919;DHT22;4998;51.024;13.828;2024-03-02T14:55:12;16.90;71.00
9919;DHT22;4998;51.024;13.828;2024-03-02T14:57:39;16.90;71.10
9919;DHT22;4998;51.024;13.828;2024-03-02T15:00:07;16.90;71.20
9919;DHT22;4998;51.024;13.828;2024-03-02T15:02:36;16.80;70.90
9919;DHT22;4998;51.024;13.828;2024-03-02T15:05:06;16.80;71.20
9919;DHT22;4998;51.024;13.828;2024-03-02T15:07:33;16.80;70.90
9919;DHT22;4998;51.024;13.828;2024-03-02T15:10:00;16.80;71.10
9919;DHT22;4998;51.024;13.828;2024-03-02T15:12:27;16.80;71.10
9919;DHT22;4998;51.024;13.828;2024-03-02T15:14:54;16.80;71.10
9919;DHT22;4998;51.024;13.828;2024-03-02T15:17:22;16.80;71.20
9919;DHT22;4998;51.024;13.828;2024-03-02T15:19:49;16.80;71.30
9919;DHT22;4998;51.024;13.828;2024-03-02T15:22:17;16.70;71.00
9919;DHT22;4998;51.024;13.828;2024-03-02T15:24:44;16.70;71.00
9919;DHT22;4998;51.024;13.828;2024-03-02T15:27:11;16.70;71.10
9919;DHT22;4998;51.024;13.828;2024-03-02T15:29:38;16.70;71.00
9919;DHT22;4998;51.024;13.828;2024-03-02T15:32:06;16.70;71.00
9919;DHT22;4998;51.024;13.828;2024-03-02T15:34:33;16.70;70.90
9919;DHT22;4998;51.024;13.828;2024-03-02T15:37:01;16.70;70.90
9919;DHT22;4998;51.024;13.828;2024-03-02T15:39:30;16.70;70.90
9919;DHT22;4998;51.024;13.828;2024-03-02T15:41:57;16.60;70.70
9919;DHT22;4998;51.024;13.828;2024-03-02T15:44:24;16.60;71.00
9919;DHT22;4998;51.024;13.828;2024-03-02T15:46:51;16.60;71.00
9919;DHT22;4998;51.024;13.828;2024-03-02T15:49:18;16.60;70.70
9919;DHT22;4998;51.024;13.828;2024-03-02T15:51:45;16.60;70.80